sensor_id;sensor_type;location;lat;lon;timestamp;temperature;humidity
35523;DHT22;61478;50.820;4.330;2022-07-01T00:01:59;14.10;99.90
35523;DHT22;61478;50.820;4.330;2022-07-01T00:04:25;14.10;99.90
35523;DHT22;61478;50.820;4.330;2022-07-01T00:06:53;14.10;99.90
35523;DHT22;61478;50.820;4.330;2022-07-01T00:09:20;14.10;99.90
35523;DHT22;61478;50.820;4.330;2022-07-01T00:11:46;14.10;99.90
35523;DHT22;61478;50.820;4.330;2022-07-01T00:14:12;14.10;99.90
35523;DHT22;61478;50.820;4.330;2022-07-01T00:16:38;14.10;99.90
35523;DHT22;61478;50.820;4.330;2022-07-01T00:19:04;14.10;99.90
35523;DHT22;61478;50.820;4.330;2022-07-01T00:21:31;14.10;99.90
35523;DHT22;61478;50.820;4.330;2022-07-01T00:23:57;14.10;99.90
35523;DHT22;61478;50.820;4.330;2022-07-01T00:26:23;14.20;99.90
35523;DHT22;61478;50.820;4.330;2022-07-01T00:28:49;14.10;99.90
35523;DHT22;61478;50.820;4.330;2022-07-01T00:31:15;14.20;99.90
35523;DHT22;61478;50.820;4.330;2022-07-01T00:33:40;14.20;99.90
35523;DHT22;61478;50.820;4.330;2022-07-01T00:36:06;14.10;99.90
35523;DHT22;61478;50.820;4.330;2022-07-01T00:38:32;14.10;99.90
35523;DHT22;61478;50.820;4.330;2022-07-01T00:40:58;14.10;99.90
35523;DHT22;61478;50.820;4.330;2022-07-01T00:43:24;14.10;99.90
35523;DHT22;61478;50.820;4.330;2022-07-01T00:45:51;14.10;99.90
35523;DHT22;61478;50.820;4.330;2022-07-01T00:48:20;14.10;99.90
35523;DHT22;61478;50.820;4.330;2022-07-01T00:50:47;14.10;99.90
35523;DHT22;61478;50.820;4.330;2022-07-01T00:53:14;14.10;99.90
35523;DHT22;61478;50.820;4.330;2022-07-01T00:55:41;14.10;99.90
35523;DHT22;61478;50.820;4.330;2022-07-01T00:58:08;14.10;99.90
35523;DHT22;61478;50.820;4.330;2022-07-01T01:00:35;14.10;99.90
35523;DHT22;61478;50.820;4.330;2022-07-01T01:03:01;14.20;99.90
35523;DHT22;61478;50.820;4.330;2022-07-01T01:05:27;14.10;99.90
35523;DHT22;61478;50.820;4.330;2022-07-01T01:07:53;14.10;99.90
35523;DHT22;61478;50.820;4.330;2022-07-01T01:10:20;14.10;99.90
35523;DHT22;61478;50.820;4.330;2022-07-01T01:12:50;14.00;99.90
35523;DHT22;61478;50.820;4.330;2022-07-01T01:15:19;14.00;99.90
35523;DHT22;61478;50.820;4.330;2022-07-01T01:17:45;14.10;99.90
35523;DHT22;61478;50.820;4.330;2022-07-01T01:20:18;14.20;99.90
35523;DHT22;61478;50.820;4.330;2022-07-01T01:22:45;14.10;99.90
35523;DHT22;61478;50.820;4.330;2022-07-01T01:25:12;14.10;99.90
35523;DHT22;61478;50.820;4.330;2022-07-01T01:27:38;14.00;99.90
35523;DHT22;61478;50.820;4.330;2022-07-01T01:30:05;14.10;99.90
35523;DHT22;61478;50.820;4.330;2022-07-01T01:32:32;14.00;99.90
35523;DHT22;61478;50.820;4.330;2022-07-01T01:34:58;14.10;99.90
35523;DHT22;61478;50.820;4.330;2022-07-01T01:37:23;14.10;99.90
35523;DHT22;61478;50.820;4.330;2022-07-01T01:39:49;14.10;99.90
35523;DHT22;61478;50.820;4.330;2022-07-01T01:42:15;14.00;99.90
35523;DHT22;61478;50.820;4.330;2022-07-01T01:44:41;14.10;99.90
35523;DHT22;61478;50.820;4.330;2022-07-01T01:47:07;14.00;99.90
35523;DHT22;61478;50.820;4.330;2022-07-01T01:49:33;14.10;99.90
35523;DHT22;61478;50.820;4.330;2022-07-01T01:51:59;14.10;99.90
35523;DHT22;61478;50.820;4.330;2022-07-01T01:54:25;14.10;99.90
35523;DHT22;61478;50.820;4.330;2022-07-01T01:56:51;14.10;99.90
35523;DHT22;61478;50.820;4.330;2022-07-01T01:59:17;14.10;99.90
35523;DHT22;61478;50.820;4.330;2022-07-01T02:01:43;14.10;99.90
35523;DHT22;61478;50.820;4.330;2022-07-01T02:04:09;14.10;99.90
35523;DHT22;61478;50.820;4.330;2022-07-01T02:06:35;14.10;99.90
35523;DHT22;61478;50.820;4.330;2022-07-01T02:09:02;14.10;99.90
35523;DHT22;61478;50.820;4.330;2022-07-01T02:11:28;14.10;99.90
35523;DHT22;61478;50.820;4.330;2022-07-01T02:13:54;14.10;99.90
35523;DHT22;61478;50.820;4.330;2022-07-01T02:16:20;14.10;99.90
35523;DHT22;61478;50.820;4.330;2022-07-01T02:18:46;14.10;99.90
35523;DHT22;61478;50.820;4.330;2022-07-01T02:21:11;14.20;99.90
35523;DHT22;61478;50.820;4.330;2022-07-01T02:23:37;14.20;99.90
35523;DHT22;61478;50.820;4.330;2022-07-01T02:26:03;14.20;99.90
35523;DHT22;61478;50.820;4.330;2022-07-01T02:28:29;14.20;99.90
35523;DHT22;61478;50.820;4.330;2022-07-01T02:30:55;14.10;99.90
35523;DHT22;61478;50.820;4.330;2022-07-01T02:33:21;14.00;99.90
35523;DHT22;61478;50.820;4.330;2022-07-01T02:35:47;14.00;99.90
35523;DHT22;61478;50.820;4.330;2022-07-01T02:38:13;14.00;99.90
35523;DHT22;61478;50.820;4.330;2022-07-01T02:40:39;14.00;99.90
35523;DHT22;61478;50.820;4.330;2022-07-01T02:43:07;14.00;99.90
35523;DHT22;61478;50.820;4.330;2022-07-01T02:45:33;14.10;99.90
35523;DHT22;61478;50.820;4.330;2022-07-01T02:47:59;14.10;99.90
35523;DHT22;61478;50.820;4.330;2022-07-01T02:50:27;14.00;99.90
35523;DHT22;61478;50.820;4.330;2022-07-01T02:52:53;14.00;99.90
35523;DHT22;61478;50.820;4.330;2022-07-01T02:55:19;14.00;99.90
35523;DHT22;61478;50.820;4.330;2022-07-01T02:57:45;14.00;99.90
35523;DHT22;61478;50.820;4.330;2022-07-01T03:00:13;13.90;99.90
35523;DHT22;61478;50.820;4.330;2022-07-01T03:02:40;13.90;99.90
35523;DHT22;61478;50.820;4.330;2022-07-01T03:05:07;13.90;99.90
35523;DHT22;61478;50.820;4.330;2022-07-01T03:07:33;13.90;99.90
35523;DHT22;61478;50.820;4.330;2022-07-01T03:10:01;13.90;99.90
35523;DHT22;61478;50.820;4.330;2022-07-01T03:12:27;13.80;99.90
35523;DHT22;61478;50.820;4.330;2022-07-01T03:15:00;13.90;99.90
35523;DHT22;61478;50.820;4.330;2022-07-01T03:17:28;13.90;99.90
35523;DHT22;61478;50.820;4.330;2022-07-01T03:19:54;14.00;99.90
35523;DHT22;61478;50.820;4.330;2022-07-01T03:22:21;13.90;99.90
35523;DHT22;61478;50.820;4.330;2022-07-01T03:24:49;13.90;99.90
35523;DHT22;61478;50.820;4.330;2022-07-01T03:27:16;13.90;99.90
35523;DHT22;61478;50.820;4.330;2022-07-01T03:29:43;13.90;99.90
35523;DHT22;61478;50.820;4.330;2022-07-01T03:32:10;13.90;99.90
35523;DHT22;61478;50.820;4.330;2022-07-01T03:34:40;13.80;99.90
35523;DHT22;61478;50.820;4.330;2022-07-01T03:37:08;13.80;99.90
35523;DHT22;61478;50.820;4.330;2022-07-01T03:39:35;13.70;99.90
35523;DHT22;61478;50.820;4.330;2022-07-01T03:42:02;13.80;99.90
35523;DHT22;61478;50.820;4.330;2022-07-01T03:44:28;13.80;99.90
35523;DHT22;61478;50.820;4.330;2022-07-01T03:46:54;13.80;99.90
35523;DHT22;61478;50.820;4.330;2022-07-01T03:49:21;13.80;99.90
35523;DHT22;61478;50.820;4.330;2022-07-01T03:51:47;13.70;99.90
35523;DHT22;61478;50.820;4.330;2022-07-01T03:54:13;13.70;99.90
35523;DHT22;61478;50.820;4.330;2022-07-01T03:56:59;13.70;99.90
35523;DHT22;61478;50.820;4.330;2022-07-01T03:59:26;13.70;99.90
35523;DHT22;61478;50.820;4.330;2022-07-01T04:01:53;13.80;99.90
35523;DHT22;61478;50.820;4.330;2022-07-01T04:04:18;13.80;99.90
35523;DHT22;61478;50.820;4.330;2022-07-01T04:06:46;13.80;99.90
35523;DHT22;61478;50.820;4.330;2022-07-01T04:09:13;13.80;99.90
35523;DHT22;61478;50.820;4.330;2022-07-01T04:11:43;13.70;99.90
35523;DHT22;61478;50.820;4.330;2022-07-01T04:14:10;13.70;99.90
35523;DHT22;61478;50.820;4.330;2022-07-01T04:16:37;13.70;99.90
35523;DHT22;61478;50.820;4.330;2022-07-01T04:19:03;13.80;99.90
35523;DHT22;61478;50.820;4.330;2022-07-01T04:21:29;13.70;99.90
35523;DHT22;61478;50.820;4.330;2022-07-01T04:24:13;13.60;99.90
35523;DHT22;61478;50.820;4.330;2022-07-01T04:26:40;13.60;99.90
35523;DHT22;61478;50.820;4.330;2022-07-01T04:29:06;13.60;99.90
35523;DHT22;61478;50.820;4.330;2022-07-01T04:31:36;13.60;99.90
35523;DHT22;61478;50.820;4.330;2022-07-01T04:34:03;13.60;99.90
35523;DHT22;61478;50.820;4.330;2022-07-01T04:36:29;13.60;99.90
35523;DHT22;61478;50.820;4.330;2022-07-01T04:38:55;13.70;99.90
35523;DHT22;61478;50.820;4.330;2022-07-01T04:41:21;13.70;99.90
35523;DHT22;61478;50.820;4.330;2022-07-01T04:44:06;13.70;99.90
35523;DHT22;61478;50.820;4.330;2022-07-01T04:46:32;13.70;99.90
35523;DHT22;61478;50.820;4.330;2022-07-01T04:48:58;13.70;99.90
35523;DHT22;61478;50.820;4.330;2022-07-01T04:51:24;13.70;99.90
35523;DHT22;61478;50.820;4.330;2022-07-01T04:53:50;13.70;99.90
35523;DHT22;61478;50.820;4.330;2022-07-01T04:56:17;13.70;99.90
35523;DHT22;61478;50.820;4.330;2022-07-01T04:58:43;13.70;99.90
35523;DHT22;61478;50.820;4.330;2022-07-01T05:01:09;13.70;99.90
35523;DHT22;61478;50.820;4.330;2022-07-01T05:03:34;13.70;99.90
35523;DHT22;61478;50.820;4.330;2022-07-01T05:06:00;13.80;99.90
35523;DHT22;61478;50.820;4.330;2022-07-01T05:08:26;13.90;99.90
35523;DHT22;61478;50.820;4.330;2022-07-01T05:10:52;14.10;99.90
35523;DHT22;61478;50.820;4.330;2022-07-01T05:13:18;14.10;99.90
35523;DHT22;61478;50.820;4.330;2022-07-01T05:15:45;14.10;99.90
35523;DHT22;61478;50.820;4.330;2022-07-01T05:18:11;13.90;99.90
35523;DHT22;61478;50.820;4.330;2022-07-01T05:20:55;13.80;99.90
35523;DHT22;61478;50.820;4.330;2022-07-01T05:23:40;13.70;99.90
35523;DHT22;61478;50.820;4.330;2022-07-01T05:26:06;13.70;99.90
35523;DHT22;61478;50.820;4.330;2022-07-01T05:28:33;13.70;99.90
35523;DHT22;61478;50.820;4.330;2022-07-01T05:30:58;13.70;99.90
35523;DHT22;61478;50.820;4.330;2022-07-01T05:33:24;13.70;99.90
35523;DHT22;61478;50.820;4.330;2022-07-01T05:35:54;13.70;99.90
35523;DHT22;61478;50.820;4.330;2022-07-01T05:38:20;13.90;99.90
35523;DHT22;61478;50.820;4.330;2022-07-01T05:40:46;13.90;99.90
35523;DHT22;61478;50.820;4.330;2022-07-01T05:43:12;13.80;99.90
35523;DHT22;61478;50.820;4.330;2022-07-01T05:45:38;13.80;99.90
35523;DHT22;61478;50.820;4.330;2022-07-01T05:48:04;13.80;99.90
35523;DHT22;61478;50.820;4.330;2022-07-01T05:50:30;13.90;99.90
35523;DHT22;61478;50.820;4.330;2022-07-01T05:52:56;14.10;99.90
35523;DHT22;61478;50.820;4.330;2022-07-01T05:55:21;14.30;99.90
35523;DHT22;61478;50.820;4.330;2022-07-01T05:57:47;14.20;99.90
35523;DHT22;61478;50.820;4.330;2022-07-01T06:00:14;14.30;99.90
35523;DHT22;61478;50.820;4.330;2022-07-01T06:02:40;14.50;99.90
35523;DHT22;61478;50.820;4.330;2022-07-01T06:05:06;14.50;99.90
35523;DHT22;61478;50.820;4.330;2022-07-01T06:07:31;14.40;99.90
35523;DHT22;61478;50.820;4.330;2022-07-01T06:09:57;14.50;99.90
35523;DHT22;61478;50.820;4.330;2022-07-01T06:12:23;14.40;99.90
35523;DHT22;61478;50.820;4.330;2022-07-01T06:14:49;14.40;99.90
35523;DHT22;61478;50.820;4.330;2022-07-01T06:17:16;14.50;99.90
35523;DHT22;61478;50.820;4.330;2022-07-01T06:19:42;14.50;99.90
35523;DHT22;61478;50.820;4.330;2022-07-01T06:22:08;14.40;99.90
35523;DHT22;61478;50.820;4.330;2022-07-01T06:24:34;14.60;99.90
35523;DHT22;61478;50.820;4.330;2022-07-01T06:27:00;14.70;99.90
35523;DHT22;61478;50.820;4.330;2022-07-01T06:29:26;15.00;99.90
35523;DHT22;61478;50.820;4.330;2022-07-01T06:31:53;15.00;99.90
35523;DHT22;61478;50.820;4.330;2022-07-01T06:34:19;15.00;99.90
35523;DHT22;61478;50.820;4.330;2022-07-01T06:36:46;15.00;99.90
35523;DHT22;61478;50.820;4.330;2022-07-01T06:39:11;15.10;99.90
35523;DHT22;61478;50.820;4.330;2022-07-01T06:41:37;15.00;99.90
35523;DHT22;61478;50.820;4.330;2022-07-01T06:44:04;15.10;99.90
35523;DHT22;61478;50.820;4.330;2022-07-01T06:46:33;15.10;99.90
35523;DHT22;61478;50.820;4.330;2022-07-01T06:48:59;15.00;99.90
35523;DHT22;61478;50.820;4.330;2022-07-01T06:51:26;15.20;99.90
35523;DHT22;61478;50.820;4.330;2022-07-01T06:53:52;15.20;99.90
35523;DHT22;61478;50.820;4.330;2022-07-01T06:56:18;15.40;99.90
35523;DHT22;61478;50.820;4.330;2022-07-01T06:58:44;15.30;99.90
35523;DHT22;61478;50.820;4.330;2022-07-01T07:01:10;15.50;99.90
35523;DHT22;61478;50.820;4.330;2022-07-01T07:03:36;15.40;99.90
35523;DHT22;61478;50.820;4.330;2022-07-01T07:06:03;15.40;99.90
35523;DHT22;61478;50.820;4.330;2022-07-01T07:08:30;15.50;99.90
35523;DHT22;61478;50.820;4.330;2022-07-01T07:10:57;15.30;99.90
35523;DHT22;61478;50.820;4.330;2022-07-01T07:13:23;15.50;99.90
35523;DHT22;61478;50.820;4.330;2022-07-01T07:15:49;15.60;99.90
35523;DHT22;61478;50.820;4.330;2022-07-01T07:18:15;15.60;99.90
35523;DHT22;61478;50.820;4.330;2022-07-01T07:20:41;15.70;99.90
35523;DHT22;61478;50.820;4.330;2022-07-01T07:23:07;15.60;99.90
35523;DHT22;61478;50.820;4.330;2022-07-01T07:25:33;15.60;99.90
35523;DHT22;61478;50.820;4.330;2022-07-01T07:27:59;15.50;99.90
35523;DHT22;61478;50.820;4.330;2022-07-01T07:30:25;15.40;99.90
35523;DHT22;61478;50.820;4.330;2022-07-01T07:32:51;15.50;99.90
35523;DHT22;61478;50.820;4.330;2022-07-01T07:35:16;15.60;99.90
35523;DHT22;61478;50.820;4.330;2022-07-01T07:37:43;15.80;99.90
35523;DHT22;61478;50.820;4.330;2022-07-01T07:40:10;15.90;99.90
35523;DHT22;61478;50.820;4.330;2022-07-01T07:42:38;15.90;99.90
35523;DHT22;61478;50.820;4.330;2022-07-01T07:45:05;16.00;99.90
35523;DHT22;61478;50.820;4.330;2022-07-01T07:47:37;16.20;99.90
35523;DHT22;61478;50.820;4.330;2022-07-01T07:50:04;16.20;99.90
35523;DHT22;61478;50.820;4.330;2022-07-01T07:52:30;16.30;99.90
35523;DHT22;61478;50.820;4.330;2022-07-01T07:54:56;16.40;99.90
35523;DHT22;61478;50.820;4.330;2022-07-01T07:57:22;17.20;99.90
35523;DHT22;61478;50.820;4.330;2022-07-01T07:59:48;17.70;99.90
35523;DHT22;61478;50.820;4.330;2022-07-01T08:02:14;17.70;99.90
35523;DHT22;61478;50.820;4.330;2022-07-01T08:04:40;17.60;99.90
35523;DHT22;61478;50.820;4.330;2022-07-01T08:07:06;17.40;99.90
35523;DHT22;61478;50.820;4.330;2022-07-01T08:09:32;17.00;99.90
35523;DHT22;61478;50.820;4.330;2022-07-01T08:12:03;17.00;99.90
35523;DHT22;61478;50.820;4.330;2022-07-01T08:14:29;17.00;99.90
35523;DHT22;61478;50.820;4.330;2022-07-01T08:16:55;17.10;99.90
35523;DHT22;61478;50.820;4.330;2022-07-01T08:19:21;17.00;99.90
35523;DHT22;61478;50.820;4.330;2022-07-01T08:21:47;17.00;99.90
35523;DHT22;61478;50.820;4.330;2022-07-01T08:24:13;16.80;99.90
35523;DHT22;61478;50.820;4.330;2022-07-01T08:26:39;16.70;99.90
35523;DHT22;61478;50.820;4.330;2022-07-01T08:29:05;16.80;99.90
35523;DHT22;61478;50.820;4.330;2022-07-01T08:31:31;16.80;99.90
35523;DHT22;61478;50.820;4.330;2022-07-01T08:33:57;16.80;99.90
35523;DHT22;61478;50.820;4.330;2022-07-01T08:36:23;16.90;99.90
35523;DHT22;61478;50.820;4.330;2022-07-01T08:38:49;16.90;99.90
35523;DHT22;61478;50.820;4.330;2022-07-01T08:41:16;16.80;99.90
35523;DHT22;61478;50.820;4.330;2022-07-01T08:43:43;16.80;99.90
35523;DHT22;61478;50.820;4.330;2022-07-01T08:46:09;16.70;99.90
35523;DHT22;61478;50.820;4.330;2022-07-01T08:48:35;16.70;99.90
35523;DHT22;61478;50.820;4.330;2022-07-01T08:51:01;17.00;99.90
35523;DHT22;61478;50.820;4.330;2022-07-01T08:53:31;18.00;99.90
35523;DHT22;61478;50.820;4.330;2022-07-01T08:55:58;19.00;99.90
35523;DHT22;61478;50.820;4.330;2022-07-01T08:58:42;19.70;99.90
35523;DHT22;61478;50.820;4.330;2022-07-01T09:01:20;19.60;99.90
35523;DHT22;61478;50.820;4.330;2022-07-01T09:03:47;20.20;99.90
35523;DHT22;61478;50.820;4.330;2022-07-01T09:06:21;21.10;99.90
35523;DHT22;61478;50.820;4.330;2022-07-01T09:08:48;21.90;99.90
35523;DHT22;61478;50.820;4.330;2022-07-01T09:11:22;21.20;99.90
35523;DHT22;61478;50.820;4.330;2022-07-01T09:14:10;20.40;99.90
35523;DHT22;61478;50.820;4.330;2022-07-01T09:16:46;19.90;99.90
35523;DHT22;61478;50.820;4.330;2022-07-01T09:19:15;19.40;99.90
35523;DHT22;61478;50.820;4.330;2022-07-01T09:21:42;19.60;99.90
35523;DHT22;61478;50.820;4.330;2022-07-01T09:24:31;20.10;99.90
35523;DHT22;61478;50.820;4.330;2022-07-01T09:29:31;20.00;99.90
35523;DHT22;61478;50.820;4.330;2022-07-01T09:31:59;19.90;99.90
35523;DHT22;61478;50.820;4.330;2022-07-01T09:34:25;20.10;99.90
35523;DHT22;61478;50.820;4.330;2022-07-01T09:36:55;20.50;99.90
35523;DHT22;61478;50.820;4.330;2022-07-01T09:39:22;21.20;99.90
35523;DHT22;61478;50.820;4.330;2022-07-01T09:41:48;21.00;99.90
35523;DHT22;61478;50.820;4.330;2022-07-01T09:44:14;20.60;99.90
35523;DHT22;61478;50.820;4.330;2022-07-01T09:46:52;20.00;99.90
35523;DHT22;61478;50.820;4.330;2022-07-01T09:49:18;19.60;99.90
35523;DHT22;61478;50.820;4.330;2022-07-01T09:51:44;19.30;99.90
35523;DHT22;61478;50.820;4.330;2022-07-01T09:54:12;19.40;99.90
35523;DHT22;61478;50.820;4.330;2022-07-01T09:56:38;20.40;99.90
35523;DHT22;61478;50.820;4.330;2022-07-01T09:59:04;20.70;99.90
35523;DHT22;61478;50.820;4.330;2022-07-01T10:01:31;20.40;99.90
35523;DHT22;61478;50.820;4.330;2022-07-01T10:03:59;20.30;99.90
35523;DHT22;61478;50.820;4.330;2022-07-01T10:11:57;20.60;99.90
35523;DHT22;61478;50.820;4.330;2022-07-01T10:14:29;21.10;99.90
35523;DHT22;61478;50.820;4.330;2022-07-01T10:16:56;21.80;99.90
35523;DHT22;61478;50.820;4.330;2022-07-01T10:19:30;22.00;99.90
35523;DHT22;61478;50.820;4.330;2022-07-01T10:22:01;22.60;99.90
35523;DHT22;61478;50.820;4.330;2022-07-01T10:24:46;22.80;99.90
35523;DHT22;61478;50.820;4.330;2022-07-01T10:27:24;23.20;99.90
35523;DHT22;61478;50.820;4.330;2022-07-01T10:30:13;23.30;99.90
35523;DHT22;61478;50.820;4.330;2022-07-01T10:32:47;23.20;99.90
35523;DHT22;61478;50.820;4.330;2022-07-01T10:35:14;23.30;99.90
35523;DHT22;61478;50.820;4.330;2022-07-01T10:37:59;22.70;99.90
35523;DHT22;61478;50.820;4.330;2022-07-01T10:40:45;22.30;99.90
35523;DHT22;61478;50.820;4.330;2022-07-01T10:43:15;22.50;99.90
35523;DHT22;61478;50.820;4.330;2022-07-01T10:45:45;22.50;99.90
35523;DHT22;61478;50.820;4.330;2022-07-01T10:48:23;22.20;99.90
35523;DHT22;61478;50.820;4.330;2022-07-01T10:50:49;21.50;99.90
35523;DHT22;61478;50.820;4.330;2022-07-01T10:53:16;21.10;99.90
35523;DHT22;61478;50.820;4.330;2022-07-01T10:55:51;21.30;99.90
35523;DHT22;61478;50.820;4.330;2022-07-01T10:58:17;21.10;99.90
35523;DHT22;61478;50.820;4.330;2022-07-01T11:00:46;20.90;99.90
35523;DHT22;61478;50.820;4.330;2022-07-01T11:03:21;20.90;99.90
35523;DHT22;61478;50.820;4.330;2022-07-01T11:05:50;21.10;99.90
35523;DHT22;61478;50.820;4.330;2022-07-01T11:08:16;21.20;99.90
35523;DHT22;61478;50.820;4.330;2022-07-01T11:10:42;21.20;99.90
35523;DHT22;61478;50.820;4.330;2022-07-01T11:13:12;20.90;99.90
35523;DHT22;61478;50.820;4.330;2022-07-01T11:15:40;20.70;99.90
35523;DHT22;61478;50.820;4.330;2022-07-01T11:18:07;20.80;99.90
35523;DHT22;61478;50.820;4.330;2022-07-01T11:20:33;20.70;99.90
35523;DHT22;61478;50.820;4.330;2022-07-01T11:23:00;20.80;99.90
35523;DHT22;61478;50.820;4.330;2022-07-01T11:25:26;21.30;99.90
35523;DHT22;61478;50.820;4.330;2022-07-01T11:27:53;21.90;99.90
35523;DHT22;61478;50.820;4.330;2022-07-01T11:30:20;22.10;99.90
35523;DHT22;61478;50.820;4.330;2022-07-01T11:32:49;22.60;99.90
35523;DHT22;61478;50.820;4.330;2022-07-01T11:35:30;22.50;99.90
35523;DHT22;61478;50.820;4.330;2022-07-01T11:38:21;22.70;99.90
35523;DHT22;61478;50.820;4.330;2022-07-01T11:41:09;22.40;99.90
35523;DHT22;61478;50.820;4.330;2022-07-01T11:43:39;21.90;99.90
35523;DHT22;61478;50.820;4.330;2022-07-01T11:46:06;22.00;99.90
35523;DHT22;61478;50.820;4.330;2022-07-01T11:48:41;22.10;99.90
35523;DHT22;61478;50.820;4.330;2022-07-01T11:51:16;22.10;99.90
35523;DHT22;61478;50.820;4.330;2022-07-01T11:53:48;21.90;99.90
35523;DHT22;61478;50.820;4.330;2022-07-01T11:56:37;21.70;99.90
35523;DHT22;61478;50.820;4.330;2022-07-01T11:59:05;21.80;99.90
35523;DHT22;61478;50.820;4.330;2022-07-01T12:04:03;22.20;99.90
35523;DHT22;61478;50.820;4.330;2022-07-01T12:06:30;22.50;99.90
35523;DHT22;61478;50.820;4.330;2022-07-01T12:08:56;22.90;99.90
35523;DHT22;61478;50.820;4.330;2022-07-01T12:11:24;23.00;99.90
35523;DHT22;61478;50.820;4.330;2022-07-01T12:13:51;22.90;99.90
35523;DHT22;61478;50.820;4.330;2022-07-01T12:16:18;23.00;99.90
35523;DHT22;61478;50.820;4.330;2022-07-01T12:18:54;23.00;99.90
35523;DHT22;61478;50.820;4.330;2022-07-01T12:21:21;23.30;99.80
35523;DHT22;61478;50.820;4.330;2022-07-01T12:24:11;23.40;99.90
35523;DHT22;61478;50.820;4.330;2022-07-01T12:27:04;23.40;98.40
35523;DHT22;61478;50.820;4.330;2022-07-01T12:32:37;22.90;97.70
35523;DHT22;61478;50.820;4.330;2022-07-01T12:35:05;23.00;97.50
35523;DHT22;61478;50.820;4.330;2022-07-01T12:37:51;22.90;98.60
35523;DHT22;61478;50.820;4.330;2022-07-01T12:40:23;23.10;98.60
35523;DHT22;61478;50.820;4.330;2022-07-01T12:42:49;23.10;96.50
35523;DHT22;61478;50.820;4.330;2022-07-01T12:45:17;23.30;99.10
35523;DHT22;61478;50.820;4.330;2022-07-01T12:47:51;23.30;96.50
35523;DHT22;61478;50.820;4.330;2022-07-01T12:53:06;23.20;95.80
35523;DHT22;61478;50.820;4.330;2022-07-01T12:55:36;23.00;97.40
35523;DHT22;61478;50.820;4.330;2022-07-01T12:58:08;23.10;97.60
35523;DHT22;61478;50.820;4.330;2022-07-01T13:00:34;23.40;98.10
35523;DHT22;61478;50.820;4.330;2022-07-01T13:03:02;23.20;98.40
35523;DHT22;61478;50.820;4.330;2022-07-01T13:05:31;23.20;99.60
35523;DHT22;61478;50.820;4.330;2022-07-01T13:07:58;23.20;97.30
35523;DHT22;61478;50.820;4.330;2022-07-01T13:10:24;23.40;97.90
35523;DHT22;61478;50.820;4.330;2022-07-01T13:12:50;23.30;96.80
35523;DHT22;61478;50.820;4.330;2022-07-01T13:15:17;23.10;95.80
35523;DHT22;61478;50.820;4.330;2022-07-01T13:17:44;23.10;96.30
35523;DHT22;61478;50.820;4.330;2022-07-01T13:20:10;23.10;97.70
35523;DHT22;61478;50.820;4.330;2022-07-01T13:22:37;23.00;98.30
35523;DHT22;61478;50.820;4.330;2022-07-01T13:25:03;23.00;97.70
35523;DHT22;61478;50.820;4.330;2022-07-01T13:27:29;22.90;97.10
35523;DHT22;61478;50.820;4.330;2022-07-01T13:29:55;22.80;95.80
35523;DHT22;61478;50.820;4.330;2022-07-01T13:32:22;22.70;97.00
35523;DHT22;61478;50.820;4.330;2022-07-01T13:34:48;22.70;96.50
35523;DHT22;61478;50.820;4.330;2022-07-01T13:37:14;22.70;98.10
35523;DHT22;61478;50.820;4.330;2022-07-01T13:39:40;22.70;97.50
35523;DHT22;61478;50.820;4.330;2022-07-01T13:42:06;22.60;97.10
35523;DHT22;61478;50.820;4.330;2022-07-01T13:44:32;22.50;96.90
35523;DHT22;61478;50.820;4.330;2022-07-01T13:46:59;22.40;99.30
35523;DHT22;61478;50.820;4.330;2022-07-01T13:49:25;22.50;97.40
35523;DHT22;61478;50.820;4.330;2022-07-01T13:51:51;22.50;97.70
35523;DHT22;61478;50.820;4.330;2022-07-01T13:54:17;22.60;97.80
35523;DHT22;61478;50.820;4.330;2022-07-01T13:56:44;22.40;99.90
35523;DHT22;61478;50.820;4.330;2022-07-01T13:59:11;22.40;99.90
35523;DHT22;61478;50.820;4.330;2022-07-01T14:01:38;22.30;99.40
35523;DHT22;61478;50.820;4.330;2022-07-01T14:04:04;22.10;98.90
35523;DHT22;61478;50.820;4.330;2022-07-01T14:06:30;22.00;99.00
35523;DHT22;61478;50.820;4.330;2022-07-01T14:08:56;21.90;99.40
35523;DHT22;61478;50.820;4.330;2022-07-01T14:11:22;21.80;99.20
35523;DHT22;61478;50.820;4.330;2022-07-01T14:13:48;21.70;99.60
35523;DHT22;61478;50.820;4.330;2022-07-01T14:16:14;21.50;99.30
35523;DHT22;61478;50.820;4.330;2022-07-01T14:18:40;21.50;99.00
35523;DHT22;61478;50.820;4.330;2022-07-01T14:21:06;21.60;99.80
35523;DHT22;61478;50.820;4.330;2022-07-01T14:23:32;21.50;98.70
35523;DHT22;61478;50.820;4.330;2022-07-01T14:25:59;21.50;99.10
35523;DHT22;61478;50.820;4.330;2022-07-01T14:28:26;21.60;99.10
35523;DHT22;61478;50.820;4.330;2022-07-01T14:30:52;21.70;98.20
35523;DHT22;61478;50.820;4.330;2022-07-01T14:33:20;21.70;99.10
35523;DHT22;61478;50.820;4.330;2022-07-01T14:35:46;21.70;98.60
35523;DHT22;61478;50.820;4.330;2022-07-01T14:38:13;21.70;99.00
35523;DHT22;61478;50.820;4.330;2022-07-01T14:40:40;21.90;98.00
35523;DHT22;61478;50.820;4.330;2022-07-01T14:43:06;21.90;99.10
35523;DHT22;61478;50.820;4.330;2022-07-01T14:45:31;21.90;97.30
35523;DHT22;61478;50.820;4.330;2022-07-01T14:47:57;21.90;97.60
35523;DHT22;61478;50.820;4.330;2022-07-01T14:50:23;21.90;99.50
35523;DHT22;61478;50.820;4.330;2022-07-01T14:52:49;22.00;99.60
35523;DHT22;61478;50.820;4.330;2022-07-01T14:55:15;21.90;99.90
35523;DHT22;61478;50.820;4.330;2022-07-01T14:57:41;22.10;99.90
35523;DHT22;61478;50.820;4.330;2022-07-01T15:00:08;22.00;99.90
35523;DHT22;61478;50.820;4.330;2022-07-01T15:02:34;22.20;99.90
35523;DHT22;61478;50.820;4.330;2022-07-01T15:04:59;22.00;99.90
35523;DHT22;61478;50.820;4.330;2022-07-01T15:07:25;22.10;99.90
35523;DHT22;61478;50.820;4.330;2022-07-01T15:09:51;22.20;99.90
35523;DHT22;61478;50.820;4.330;2022-07-01T15:12:18;22.20;99.90
35523;DHT22;61478;50.820;4.330;2022-07-01T15:14:44;22.30;99.90
35523;DHT22;61478;50.820;4.330;2022-07-01T15:17:10;22.20;99.90
35523;DHT22;61478;50.820;4.330;2022-07-01T15:19:36;22.10;99.90
35523;DHT22;61478;50.820;4.330;2022-07-01T15:22:04;22.10;99.90
35523;DHT22;61478;50.820;4.330;2022-07-01T15:24:30;21.80;99.90
35523;DHT22;61478;50.820;4.330;2022-07-01T15:26:56;21.70;99.90
35523;DHT22;61478;50.820;4.330;2022-07-01T15:29:22;21.70;99.90
35523;DHT22;61478;50.820;4.330;2022-07-01T15:31:48;21.70;99.90
35523;DHT22;61478;50.820;4.330;2022-07-01T15:34:15;21.60;99.90
35523;DHT22;61478;50.820;4.330;2022-07-01T15:36:42;21.40;99.90
35523;DHT22;61478;50.820;4.330;2022-07-01T15:39:08;21.60;99.90
35523;DHT22;61478;50.820;4.330;2022-07-01T15:41:34;21.60;99.90
35523;DHT22;61478;50.820;4.330;2022-07-01T15:44:00;21.60;99.90
35523;DHT22;61478;50.820;4.330;2022-07-01T15:46:28;21.60;99.90
35523;DHT22;61478;50.820;4.330;2022-07-01T15:48:54;21.60;99.90
35523;DHT22;61478;50.820;4.330;2022-07-01T15:51:20;21.50;99.90